Aérodrome :
LOGIN :

S'inscrire | Disclaimer

   EN    FR    IT 

 










Légende :    VFR   VFR Marginal   IFR   IFR Intensif   IFR Très Intensif
Visi : 
Plafond : 
>= 8 km
>= 3000ft
5 à 8 km
1000 à 3000 ft
1500m à 5 km
500 à 1000 ft
800 à 1500m
200 à 500 ft
< 800m
< 200 ft
Symboles :   Orages  Brouillard  Fortes neiges  Fortes précipitations  Vent > 20 kt
SIGMETs :   Divers  Orages  Givrage  Turbulence  Onde Orograph.  Cendres Volcan.






- Altitude de l'aérodrome : 233 ft
- Code IATA : REU


LERS - Reus Tarragona

DERNIER METAR :
  • 221030Z 14007KT 080V170 9999 FEW030 24/16 Q1014

METARs EXPIRÉS :
  • 221000Z 16007KT 100V210 9999 FEW030 25/11 Q1014
  • 220930Z 14007KT 090V190 9999 FEW030 26/11 Q1013
  • 220900Z 15008KT 110V200 9999 FEW030 25/11 Q1013
  • 220830Z 10006KT 050V160 9999 FEW040 25/10 Q1013
  • 220800Z 10005KT 060V140 9999 FEW040 24/08 Q1013

TAF TAF LERS
Valide du 22 à 09h jusqu'au 23 à 09h UTC


220800Z 2209/2309 VRB03KT 9999 FEW040 TX27/2212Z TN16/2306Z
BECMG 2210/2212 13010KT
BECMG 2217/2219 VRB04KT
PROB40
TEMPO 2304/2309 33015G25KT 3000 TSRA FEW020CB



MET'MAP, la Météo Aéronautique d'un coup d'oeil ! - Copyright ORBIFLY Décembre 2007 - Disclaimer

ORBIFLY MET'MAP TEAM :

Programmation & Développement : Alexandra Zaïnal
Sur une idée originale de : Baudouin d'Aumeries
Assistance à la programmation : Marc-Olivier Méhu
Soutien technique & logistique : Manuel Goepfert

Contact : metmap@orbifly.com




SOURCES & CREDITS :

   NOAA